sensor_id;sensor_type;location;lat;lon;timestamp;pressure;altitude;pressure_sealevel;temperature;humidity
59859;BME280;45734;53.648;9.566;2023-03-23T00:00:28;53795.19;;;-145.06;100.00
59859;BME280;45734;53.648;9.566;2023-03-23T00:05:28;53809.34;;;-145.06;100.00
59859;BME280;45734;53.648;9.566;2023-03-23T00:10:29;53801.25;;;-145.06;100.00
59859;BME280;45734;53.648;9.566;2023-03-23T00:15:32;53815.44;;;-145.06;100.00
59859;BME280;45734;53.648;9.566;2023-03-23T00:20:33;53797.22;;;-145.06;100.00
59859;BME280;45734;53.648;9.566;2023-03-23T00:25:40;53839.72;;;-145.06;100.00
59859;BME280;45734;53.648;9.566;2023-03-23T00:30:40;53793.16;;;-145.06;100.00
59859;BME280;45734;53.648;9.566;2023-03-23T00:35:42;53819.47;;;-145.06;100.00
59859;BME280;45734;53.648;9.566;2023-03-23T00:40:44;53811.38;;;-145.06;100.00
59859;BME280;45734;53.648;9.566;2023-03-23T00:45:44;53817.47;;;-145.06;100.00
59859;BME280;45734;53.648;9.566;2023-03-23T00:50:52;53789.09;;;-145.06;100.00
59859;BME280;45734;53.648;9.566;2023-03-23T00:55:52;53795.19;;;-145.06;100.00
59859;BME280;45734;53.648;9.566;2023-03-23T01:00:53;53829.59;;;-145.06;100.00
59859;BME280;45734;53.648;9.566;2023-03-23T01:05:53;53809.34;;;-145.06;100.00
59859;BME280;45734;53.648;9.566;2023-03-23T01:11:00;53821.50;;;-145.06;100.00
59859;BME280;45734;53.648;9.566;2023-03-23T01:16:02;53819.47;;;-145.06;100.00
59859;BME280;45734;53.648;9.566;2023-03-23T01:21:03;53803.28;;;-145.06;100.00
59859;BME280;45734;53.648;9.566;2023-03-23T01:26:04;53799.22;;;-145.06;100.00
59859;BME280;45734;53.648;9.566;2023-03-23T01:31:06;53781.00;;;-145.06;100.00
59859;BME280;45734;53.648;9.566;2023-03-23T01:36:07;53811.38;;;-145.06;100.00
59859;BME280;45734;53.648;9.566;2023-03-23T01:41:10;53841.75;;;-145.06;100.00
59859;BME280;45734;53.648;9.566;2023-03-23T01:46:10;53827.59;;;-145.06;100.00
59859;BME280;45734;53.648;9.566;2023-03-23T01:51:14;53839.72;;;-145.06;100.00
59859;BME280;45734;53.648;9.566;2023-03-23T01:56:16;53789.09;;;-145.06;100.00
59859;BME280;45734;53.648;9.566;2023-03-23T02:01:20;53799.22;;;-145.06;100.00
59859;BME280;45734;53.648;9.566;2023-03-23T02:06:21;53776.94;;;-145.06;100.00
59859;BME280;45734;53.648;9.566;2023-03-23T02:11:21;53827.59;;;-145.06;100.00
59859;BME280;45734;53.648;9.566;2023-03-23T02:16:42;53811.38;;;-145.06;100.00
59859;BME280;45734;53.648;9.566;2023-03-23T02:21:49;53774.94;;;-145.06;100.00
59859;BME280;45734;53.648;9.566;2023-03-23T02:37:13;53807.31;;;-145.06;100.00
59859;BME280;45734;53.648;9.566;2023-03-23T02:42:15;53787.06;;;-145.06;100.00
59859;BME280;45734;53.648;9.566;2023-03-23T02:47:18;53756.69;;;-145.06;100.00
59859;BME280;45734;53.648;9.566;2023-03-23T02:52:20;53778.97;;;-145.06;100.00
59859;BME280;45734;53.648;9.566;2023-03-23T02:57:22;53857.97;;;-145.06;100.00
59859;BME280;45734;53.648;9.566;2023-03-23T03:02:26;53815.44;;;-145.06;100.00
59859;BME280;45734;53.648;9.566;2023-03-23T03:18:31;53793.16;;;-145.06;100.00
59859;BME280;45734;53.648;9.566;2023-03-23T03:23:34;53799.22;;;-145.06;100.00
59859;BME280;45734;53.648;9.566;2023-03-23T03:28:35;53803.28;;;-145.06;100.00
59859;BME280;45734;53.648;9.566;2023-03-23T03:33:36;53855.94;;;-145.06;100.00
59859;BME280;45734;53.648;9.566;2023-03-23T03:38:42;53843.78;;;-145.06;100.00
59859;BME280;45734;53.648;9.566;2023-03-23T03:43:43;53823.53;;;-145.06;100.00
59859;BME280;45734;53.648;9.566;2023-03-23T03:48:43;53819.47;;;-145.06;100.00
59859;BME280;45734;53.648;9.566;2023-03-23T03:53:43;53825.56;;;-145.06;100.00
59859;BME280;45734;53.648;9.566;2023-03-23T03:58:43;53811.38;;;-145.06;100.00
59859;BME280;45734;53.648;9.566;2023-03-23T04:03:44;53843.78;;;-145.06;100.00
59859;BME280;45734;53.648;9.566;2023-03-23T04:08:44;53843.78;;;-145.06;100.00
59859;BME280;45734;53.648;9.566;2023-03-23T04:13:44;53785.06;;;-145.06;100.00
59859;BME280;45734;53.648;9.566;2023-03-23T04:18:44;53809.34;;;-145.06;100.00
59859;BME280;45734;53.648;9.566;2023-03-23T04:23:47;53797.22;;;-145.06;100.00
59859;BME280;45734;53.648;9.566;2023-03-23T04:28:48;53803.28;;;-145.06;100.00
59859;BME280;45734;53.648;9.566;2023-03-23T04:33:53;53791.13;;;-145.06;100.00
59859;BME280;45734;53.648;9.566;2023-03-23T04:38:53;53799.22;;;-145.06;100.00
59859;BME280;45734;53.648;9.566;2023-03-23T04:43:54;53805.31;;;-145.06;100.00
59859;BME280;45734;53.648;9.566;2023-03-23T04:48:57;53807.31;;;-145.06;100.00
59859;BME280;45734;53.648;9.566;2023-03-23T04:53:58;53815.44;;;-145.06;100.00
59859;BME280;45734;53.648;9.566;2023-03-23T04:58:58;53833.66;;;-145.06;100.00
59859;BME280;45734;53.648;9.566;2023-03-23T05:04:00;53813.41;;;-145.06;100.00
59859;BME280;45734;53.648;9.566;2023-03-23T05:09:02;53835.69;;;-145.06;100.00
59859;BME280;45734;53.648;9.566;2023-03-23T05:14:03;53815.44;;;-145.06;100.00
59859;BME280;45734;53.648;9.566;2023-03-23T05:19:03;53835.69;;;-145.06;100.00
59859;BME280;45734;53.648;9.566;2023-03-23T05:24:05;53821.50;;;-145.06;100.00
59859;BME280;45734;53.648;9.566;2023-03-23T05:29:06;53813.41;;;-145.06;100.00
59859;BME280;45734;53.648;9.566;2023-03-23T05:34:06;53841.75;;;-145.06;100.00
59859;BME280;45734;53.648;9.566;2023-03-23T05:39:06;53815.44;;;-145.06;100.00
59859;BME280;45734;53.648;9.566;2023-03-23T05:44:06;53849.84;;;-145.06;100.00
59859;BME280;45734;53.648;9.566;2023-03-23T05:49:07;53831.63;;;-145.06;100.00
59859;BME280;45734;53.648;9.566;2023-03-23T05:54:08;53817.47;;;-145.06;100.00
59859;BME280;45734;53.648;9.566;2023-03-23T05:59:10;53819.47;;;-145.06;100.00
59859;BME280;45734;53.648;9.566;2023-03-23T06:04:10;53845.81;;;-145.06;100.00
59859;BME280;45734;53.648;9.566;2023-03-23T06:09:13;53841.75;;;-145.06;100.00
59859;BME280;45734;53.648;9.566;2023-03-23T06:14:13;53748.59;;;-145.06;100.00
59859;BME280;45734;53.648;9.566;2023-03-23T06:19:14;53778.97;;;-145.06;100.00
59859;BME280;45734;53.648;9.566;2023-03-23T06:24:15;53799.22;;;-145.06;100.00
59859;BME280;45734;53.648;9.566;2023-03-23T06:29:15;53791.13;;;-145.06;100.00
59859;BME280;45734;53.648;9.566;2023-03-23T06:34:17;53787.06;;;-145.06;100.00
59859;BME280;45734;53.648;9.566;2023-03-23T06:39:17;53801.25;;;-145.06;100.00
59859;BME280;45734;53.648;9.566;2023-03-23T06:44:17;53813.41;;;-145.06;100.00
59859;BME280;45734;53.648;9.566;2023-03-23T06:49:18;53762.78;;;-145.06;100.00
59859;BME280;45734;53.648;9.566;2023-03-23T06:54:19;53807.31;;;-145.06;100.00
59859;BME280;45734;53.648;9.566;2023-03-23T06:59:19;53819.47;;;-145.06;100.00
59859;BME280;45734;53.648;9.566;2023-03-23T07:04:19;53785.06;;;-145.06;100.00
59859;BME280;45734;53.648;9.566;2023-03-23T07:09:19;53813.41;;;-145.06;100.00
59859;BME280;45734;53.648;9.566;2023-03-23T07:14:20;53799.22;;;-145.06;100.00
59859;BME280;45734;53.648;9.566;2023-03-23T07:19:22;53829.59;;;-145.06;100.00
59859;BME280;45734;53.648;9.566;2023-03-23T07:24:22;53795.19;;;-145.06;100.00
59859;BME280;45734;53.648;9.566;2023-03-23T07:29:22;53770.88;;;-145.06;100.00
59859;BME280;45734;53.648;9.566;2023-03-23T07:34:22;53807.31;;;-145.06;100.00
59859;BME280;45734;53.648;9.566;2023-03-23T07:39:23;53827.59;;;-145.06;100.00
59859;BME280;45734;53.648;9.566;2023-03-23T07:44:24;53787.06;;;-145.06;100.00
59859;BME280;45734;53.648;9.566;2023-03-23T07:49:24;53778.97;;;-145.06;100.00
59859;BME280;45734;53.648;9.566;2023-03-23T07:54:26;53801.25;;;-145.06;100.00
59859;BME280;45734;53.648;9.566;2023-03-23T07:59:26;53787.06;;;-145.06;100.00
59859;BME280;45734;53.648;9.566;2023-03-23T08:04:27;53793.16;;;-145.06;100.00
59859;BME280;45734;53.648;9.566;2023-03-23T08:09:27;53758.72;;;-145.06;100.00
59859;BME280;45734;53.648;9.566;2023-03-23T08:14:27;53750.63;;;-145.06;100.00
59859;BME280;45734;53.648;9.566;2023-03-23T08:19:28;53783.03;;;-145.06;100.00
59859;BME280;45734;53.648;9.566;2023-03-23T08:24:31;53776.94;;;-145.06;100.00
59859;BME280;45734;53.648;9.566;2023-03-23T08:29:32;53791.13;;;-145.06;100.00
59859;BME280;45734;53.648;9.566;2023-03-23T08:34:33;53778.97;;;-145.06;100.00
59859;BME280;45734;53.648;9.566;2023-03-23T08:39:33;53742.53;;;-145.06;100.00
59859;BME280;45734;53.648;9.566;2023-03-23T08:44:33;53770.88;;;-145.06;100.00
59859;BME280;45734;53.648;9.566;2023-03-23T08:49:34;53752.66;;;-145.06;100.00
59859;BME280;45734;53.648;9.566;2023-03-23T08:54:34;53776.94;;;-145.06;100.00
59859;BME280;45734;53.648;9.566;2023-03-23T08:59:35;53770.88;;;-145.06;100.00
59859;BME280;45734;53.648;9.566;2023-03-23T09:04:35;53754.69;;;-145.06;100.00
59859;BME280;45734;53.648;9.566;2023-03-23T09:09:37;53752.66;;;-145.06;100.00
59859;BME280;45734;53.648;9.566;2023-03-23T09:14:39;53770.88;;;-145.06;100.00
59859;BME280;45734;53.648;9.566;2023-03-23T09:19:39;53734.44;;;-145.06;100.00
59859;BME280;45734;53.648;9.566;2023-03-23T09:24:40;53762.78;;;-145.06;100.00
59859;BME280;45734;53.648;9.566;2023-03-23T09:29:40;53710.13;;;-145.06;100.00
59859;BME280;45734;53.648;9.566;2023-03-23T09:34:41;53762.78;;;-145.06;100.00
59859;BME280;45734;53.648;9.566;2023-03-23T09:39:41;53718.22;;;-145.06;100.00
59859;BME280;45734;53.648;9.566;2023-03-23T09:45:05;53742.53;;;-145.06;100.00
59859;BME280;45734;53.648;9.566;2023-03-23T09:50:09;53714.19;;;-145.06;100.00
59859;BME280;45734;53.648;9.566;2023-03-23T09:55:14;53768.84;;;-145.06;100.00
59859;BME280;45734;53.648;9.566;2023-03-23T10:00:16;53762.78;;;-145.06;100.00
59859;BME280;45734;53.648;9.566;2023-03-23T10:05:32;53722.28;;;-145.06;100.00
59859;BME280;45734;53.648;9.566;2023-03-23T10:10:39;53722.28;;;-145.06;100.00
59859;BME280;45734;53.648;9.566;2023-03-23T10:15:43;53744.56;;;-145.06;100.00
59859;BME280;45734;53.648;9.566;2023-03-23T10:20:53;53770.88;;;-145.06;100.00
59859;BME280;45734;53.648;9.566;2023-03-23T10:25:58;53778.97;;;-145.06;100.00
59859;BME280;45734;53.648;9.566;2023-03-23T10:31:00;53752.66;;;-145.06;100.00
59859;BME280;45734;53.648;9.566;2023-03-23T10:41:10;53706.06;;;-145.06;100.00
59859;BME280;45734;53.648;9.566;2023-03-23T10:46:22;53726.31;;;-145.06;100.00
59859;BME280;45734;53.648;9.566;2023-03-23T10:51:36;53750.63;;;-145.06;100.00
59859;BME280;45734;53.648;9.566;2023-03-23T10:56:38;53722.28;;;-145.06;100.00
59859;BME280;45734;53.648;9.566;2023-03-23T11:01:41;53744.56;;;-145.06;100.00
59859;BME280;45734;53.648;9.566;2023-03-23T11:06:44;53712.16;;;-145.06;100.00
59859;BME280;45734;53.648;9.566;2023-03-23T11:11:49;53742.53;;;-145.06;100.00
59859;BME280;45734;53.648;9.566;2023-03-23T11:16:51;53718.22;;;-145.06;100.00
59859;BME280;45734;53.648;9.566;2023-03-23T11:21:57;53661.53;;;-145.06;100.00
59859;BME280;45734;53.648;9.566;2023-03-23T11:26:59;53697.97;;;-145.06;100.00
59859;BME280;45734;53.648;9.566;2023-03-23T11:37:01;53738.47;;;-145.06;100.00
59859;BME280;45734;53.648;9.566;2023-03-23T11:42:12;53689.88;;;-145.06;100.00
59859;BME280;45734;53.648;9.566;2023-03-23T11:47:27;53702.03;;;-145.06;100.00
59859;BME280;45734;53.648;9.566;2023-03-23T11:57:29;53770.88;;;-145.06;100.00
59859;BME280;45734;53.648;9.566;2023-03-23T12:02:34;53722.28;;;-145.06;100.00
59859;BME280;45734;53.648;9.566;2023-03-23T12:12:40;53748.59;;;-145.06;100.00
59859;BME280;45734;53.648;9.566;2023-03-23T12:44:17;53730.38;;;-145.06;100.00
59859;BME280;45734;53.648;9.566;2023-03-23T12:49:07;53742.53;;;-145.06;100.00
59859;BME280;45734;53.648;9.566;2023-03-23T12:54:13;53726.31;;;-145.06;100.00
59859;BME280;45734;53.648;9.566;2023-03-23T13:04:25;53748.59;;;-145.06;100.00
59859;BME280;45734;53.648;9.566;2023-03-23T13:09:43;53746.56;;;-145.06;100.00
59859;BME280;45734;53.648;9.566;2023-03-23T13:14:49;53762.78;;;-145.06;100.00
59859;BME280;45734;53.648;9.566;2023-03-23T13:25:14;53746.56;;;-145.06;100.00
59859;BME280;45734;53.648;9.566;2023-03-23T13:30:20;53770.88;;;-145.06;100.00
59859;BME280;45734;53.648;9.566;2023-03-23T13:35:21;53772.91;;;-145.06;100.00
59859;BME280;45734;53.648;9.566;2023-03-23T13:40:28;53758.72;;;-145.06;100.00
59859;BME280;45734;53.648;9.566;2023-03-23T13:50:30;53776.94;;;-145.06;100.00
59859;BME280;45734;53.648;9.566;2023-03-23T13:55:39;53768.84;;;-145.06;100.00
59859;BME280;45734;53.648;9.566;2023-03-23T14:00:47;53770.88;;;-145.06;100.00
59859;BME280;45734;53.648;9.566;2023-03-23T14:05:59;53789.09;;;-145.06;100.00
59859;BME280;45734;53.648;9.566;2023-03-23T14:11:01;53722.28;;;-145.06;100.00
59859;BME280;45734;53.648;9.566;2023-03-23T14:16:13;53726.31;;;-145.06;100.00
59859;BME280;45734;53.648;9.566;2023-03-23T14:21:16;53750.63;;;-145.06;100.00
59859;BME280;45734;53.648;9.566;2023-03-23T14:26:18;53762.78;;;-145.06;100.00
59859;BME280;45734;53.648;9.566;2023-03-23T14:31:23;53762.78;;;-145.06;100.00
59859;BME280;45734;53.648;9.566;2023-03-23T14:36:28;53728.34;;;-145.06;100.00
59859;BME280;45734;53.648;9.566;2023-03-23T14:41:29;53754.69;;;-145.06;100.00
59859;BME280;45734;53.648;9.566;2023-03-23T14:46:30;53685.81;;;-145.06;100.00
59859;BME280;45734;53.648;9.566;2023-03-23T14:51:31;53758.72;;;-145.06;100.00
59859;BME280;45734;53.648;9.566;2023-03-23T14:56:33;53766.81;;;-145.06;100.00
59859;BME280;45734;53.648;9.566;2023-03-23T15:01:34;53752.66;;;-145.06;100.00
59859;BME280;45734;53.648;9.566;2023-03-23T15:06:35;53712.16;;;-145.06;100.00
59859;BME280;45734;53.648;9.566;2023-03-23T15:11:37;53754.69;;;-145.06;100.00
59859;BME280;45734;53.648;9.566;2023-03-23T15:16:39;53718.22;;;-145.06;100.00
59859;BME280;45734;53.648;9.566;2023-03-23T15:26:47;53746.56;;;-145.06;100.00
59859;BME280;45734;53.648;9.566;2023-03-23T15:31:49;53778.97;;;-145.06;100.00
59859;BME280;45734;53.648;9.566;2023-03-23T15:36:51;53758.72;;;-145.06;100.00
59859;BME280;45734;53.648;9.566;2023-03-23T15:41:53;53750.63;;;-145.06;100.00
59859;BME280;45734;53.648;9.566;2023-03-23T15:47:02;53736.44;;;-145.06;100.00
59859;BME280;45734;53.648;9.566;2023-03-23T15:52:03;53724.31;;;-145.06;100.00
59859;BME280;45734;53.648;9.566;2023-03-23T15:57:03;53762.78;;;-145.06;100.00
59859;BME280;45734;53.648;9.566;2023-03-23T16:02:03;53768.84;;;-145.06;100.00
59859;BME280;45734;53.648;9.566;2023-03-23T16:07:03;53776.94;;;-145.06;100.00
59859;BME280;45734;53.648;9.566;2023-03-23T16:12:08;53716.19;;;-145.06;100.00
59859;BME280;45734;53.648;9.566;2023-03-23T16:17:09;53762.78;;;-145.06;100.00
59859;BME280;45734;53.648;9.566;2023-03-23T16:22:12;53738.47;;;-145.06;100.00
59859;BME280;45734;53.648;9.566;2023-03-23T16:27:12;53791.13;;;-145.06;100.00
59859;BME280;45734;53.648;9.566;2023-03-23T16:32:13;53732.41;;;-145.06;100.00
59859;BME280;45734;53.648;9.566;2023-03-23T16:37:13;53760.75;;;-145.06;100.00
59859;BME280;45734;53.648;9.566;2023-03-23T16:42:13;53766.81;;;-145.06;100.00
59859;BME280;45734;53.648;9.566;2023-03-23T16:47:13;53758.72;;;-145.06;100.00
59859;BME280;45734;53.648;9.566;2023-03-23T16:52:13;53770.88;;;-145.06;100.00
59859;BME280;45734;53.648;9.566;2023-03-23T16:57:14;53764.81;;;-145.06;100.00
59859;BME280;45734;53.648;9.566;2023-03-23T17:02:15;53817.47;;;-145.06;100.00
59859;BME280;45734;53.648;9.566;2023-03-23T17:07:16;53778.97;;;-145.06;100.00
59859;BME280;45734;53.648;9.566;2023-03-23T17:12:16;53774.94;;;-145.06;100.00
59859;BME280;45734;53.648;9.566;2023-03-23T17:17:16;53789.09;;;-145.06;100.00
59859;BME280;45734;53.648;9.566;2023-03-23T17:22:17;53778.97;;;-145.06;100.00
59859;BME280;45734;53.648;9.566;2023-03-23T17:27:18;53732.41;;;-145.06;100.00
59859;BME280;45734;53.648;9.566;2023-03-23T17:32:19;53783.03;;;-145.06;100.00
59859;BME280;45734;53.648;9.566;2023-03-23T17:37:20;53791.13;;;-145.06;100.00
59859;BME280;45734;53.648;9.566;2023-03-23T17:42:21;53801.25;;;-145.06;100.00
59859;BME280;45734;53.648;9.566;2023-03-23T17:47:21;53797.22;;;-145.06;100.00
59859;BME280;45734;53.648;9.566;2023-03-23T17:52:22;53801.25;;;-145.06;100.00
59859;BME280;45734;53.648;9.566;2023-03-23T17:57:23;53770.88;;;-145.06;100.00
59859;BME280;45734;53.648;9.566;2023-03-23T18:02:23;53758.72;;;-145.06;100.00
59859;BME280;45734;53.648;9.566;2023-03-23T18:07:24;53787.06;;;-145.06;100.00
59859;BME280;45734;53.648;9.566;2023-03-23T18:12:25;53787.06;;;-145.06;100.00
59859;BME280;45734;53.648;9.566;2023-03-23T18:17:25;53785.06;;;-145.06;100.00
59859;BME280;45734;53.648;9.566;2023-03-23T18:22:26;53801.25;;;-145.06;100.00
59859;BME280;45734;53.648;9.566;2023-03-23T18:27:26;53789.09;;;-145.06;100.00
59859;BME280;45734;53.648;9.566;2023-03-23T18:32:26;53839.72;;;-145.06;100.00
59859;BME280;45734;53.648;9.566;2023-03-23T18:37:26;53766.81;;;-145.06;100.00
59859;BME280;45734;53.648;9.566;2023-03-23T18:42:27;53799.22;;;-145.06;100.00
59859;BME280;45734;53.648;9.566;2023-03-23T18:47:28;53817.47;;;-145.06;100.00
59859;BME280;45734;53.648;9.566;2023-03-23T18:52:28;53789.09;;;-145.06;100.00
59859;BME280;45734;53.648;9.566;2023-03-23T18:57:31;53778.97;;;-145.06;100.00
59859;BME280;45734;53.648;9.566;2023-03-23T19:02:32;53801.25;;;-145.06;100.00
59859;BME280;45734;53.648;9.566;2023-03-23T19:07:32;53764.81;;;-145.06;100.00
59859;BME280;45734;53.648;9.566;2023-03-23T19:12:33;53781.00;;;-145.06;100.00
59859;BME280;45734;53.648;9.566;2023-03-23T19:17:34;53770.88;;;-145.06;100.00
59859;BME280;45734;53.648;9.566;2023-03-23T19:22:35;53809.34;;;-145.06;100.00
59859;BME280;45734;53.648;9.566;2023-03-23T19:27:35;53760.75;;;-145.06;100.00
59859;BME280;45734;53.648;9.566;2023-03-23T19:32:36;53811.38;;;-145.06;100.00
59859;BME280;45734;53.648;9.566;2023-03-23T19:37:36;53789.09;;;-145.06;100.00
59859;BME280;45734;53.648;9.566;2023-03-23T19:42:36;53791.13;;;-145.06;100.00
59859;BME280;45734;53.648;9.566;2023-03-23T19:47:37;53819.47;;;-145.06;100.00
59859;BME280;45734;53.648;9.566;2023-03-23T19:52:37;53803.28;;;-145.06;100.00
59859;BME280;45734;53.648;9.566;2023-03-23T19:57:37;53821.50;;;-145.06;100.00
59859;BME280;45734;53.648;9.566;2023-03-23T20:02:38;53819.47;;;-145.06;100.00
59859;BME280;45734;53.648;9.566;2023-03-23T20:07:38;53789.09;;;-145.06;100.00
59859;BME280;45734;53.648;9.566;2023-03-23T20:12:38;53791.13;;;-145.06;100.00
59859;BME280;45734;53.648;9.566;2023-03-23T20:17:39;53791.13;;;-145.06;100.00
59859;BME280;45734;53.648;9.566;2023-03-23T20:22:39;53807.31;;;-145.06;100.00
59859;BME280;45734;53.648;9.566;2023-03-23T20:27:39;53823.53;;;-145.06;100.00
59859;BME280;45734;53.648;9.566;2023-03-23T20:32:41;53762.78;;;-145.06;100.00
59859;BME280;45734;53.648;9.566;2023-03-23T20:37:41;53783.03;;;-145.06;100.00
59859;BME280;45734;53.648;9.566;2023-03-23T20:42:41;53811.38;;;-145.06;100.00
59859;BME280;45734;53.648;9.566;2023-03-23T20:47:42;53785.06;;;-145.06;100.00
59859;BME280;45734;53.648;9.566;2023-03-23T20:52:43;53819.47;;;-145.06;100.00
59859;BME280;45734;53.648;9.566;2023-03-23T20:57:43;53799.22;;;-145.06;100.00
59859;BME280;45734;53.648;9.566;2023-03-23T21:02:44;53803.28;;;-145.06;100.00
59859;BME280;45734;53.648;9.566;2023-03-23T21:07:44;53778.97;;;-145.06;100.00
59859;BME280;45734;53.648;9.566;2023-03-23T21:12:44;53803.28;;;-145.06;100.00
59859;BME280;45734;53.648;9.566;2023-03-23T21:17:44;53801.25;;;-145.06;100.00
59859;BME280;45734;53.648;9.566;2023-03-23T21:22:45;53829.59;;;-145.06;100.00
59859;BME280;45734;53.648;9.566;2023-03-23T21:27:45;53803.28;;;-145.06;100.00
59859;BME280;45734;53.648;9.566;2023-03-23T21:32:46;53807.31;;;-145.06;100.00
59859;BME280;45734;53.648;9.566;2023-03-23T21:37:46;53783.03;;;-145.06;100.00
59859;BME280;45734;53.648;9.566;2023-03-23T21:42:51;53795.19;;;-145.06;100.00
59859;BME280;45734;53.648;9.566;2023-03-23T21:47:52;53783.03;;;-145.06;100.00
59859;BME280;45734;53.648;9.566;2023-03-23T21:52:55;53801.25;;;-145.06;100.00
59859;BME280;45734;53.648;9.566;2023-03-23T21:57:56;53807.31;;;-145.06;100.00
59859;BME280;45734;53.648;9.566;2023-03-23T22:02:56;53803.28;;;-145.06;100.00
59859;BME280;45734;53.648;9.566;2023-03-23T22:07:56;53795.19;;;-145.06;100.00
59859;BME280;45734;53.648;9.566;2023-03-23T22:12:57;53827.59;;;-145.06;100.00
59859;BME280;45734;53.648;9.566;2023-03-23T22:17:57;53799.22;;;-145.06;100.00
59859;BME280;45734;53.648;9.566;2023-03-23T22:22:57;53768.84;;;-145.06;100.00
59859;BME280;45734;53.648;9.566;2023-03-23T22:27:58;53795.19;;;-145.06;100.00
59859;BME280;45734;53.648;9.566;2023-03-23T22:32:58;53797.22;;;-145.06;100.00
59859;BME280;45734;53.648;9.566;2023-03-23T22:37:59;53799.22;;;-145.06;100.00
59859;BME280;45734;53.648;9.566;2023-03-23T22:43:02;53827.59;;;-145.06;100.00
59859;BME280;45734;53.648;9.566;2023-03-23T22:48:02;53809.34;;;-145.06;100.00
59859;BME280;45734;53.648;9.566;2023-03-23T22:53:04;53787.06;;;-145.06;100.00
59859;BME280;45734;53.648;9.566;2023-03-23T22:58:04;53791.13;;;-145.06;100.00
59859;BME280;45734;53.648;9.566;2023-03-23T23:03:05;53772.91;;;-145.06;100.00
59859;BME280;45734;53.648;9.566;2023-03-23T23:08:06;53778.97;;;-145.06;100.00
59859;BME280;45734;53.648;9.566;2023-03-23T23:13:11;53827.59;;;-145.06;100.00
59859;BME280;45734;53.648;9.566;2023-03-23T23:18:12;53795.19;;;-145.06;100.00
59859;BME280;45734;53.648;9.566;2023-03-23T23:23:12;53827.59;;;-145.06;100.00
59859;BME280;45734;53.648;9.566;2023-03-23T23:28:13;53774.94;;;-145.06;100.00
59859;BME280;45734;53.648;9.566;2023-03-23T23:33:13;53807.31;;;-145.06;100.00
59859;BME280;45734;53.648;9.566;2023-03-23T23:38:14;53807.31;;;-145.06;100.00
59859;BME280;45734;53.648;9.566;2023-03-23T23:43:15;53781.00;;;-145.06;100.00
59859;BME280;45734;53.648;9.566;2023-03-23T23:48:15;53809.34;;;-145.06;100.00
59859;BME280;45734;53.648;9.566;2023-03-23T23:53:16;53793.16;;;-145.06;100.00
59859;BME280;45734;53.648;9.566;2023-03-23T23:58:21;53772.91;;;-145.06;100.00
